Lantana, FL (33462)

11:04 PM EDT on May 05, 2015 (GMT -0400)
Island Estates | | Change Station
CLOSE
Current Station
Personal Weather Station
Location: Lantana, FL
Elevation: 45 ft
Nearby Weather Stations

Elev 45 ft 26.57 °N, 80.08 °W | Updated 4 minutes ago

Overcast
Overcast
72.9 °F
Feels Like 72 °F
N
8.0
Wind Variable Wind from ENE
Gusts 8.0 mph

Today
High -- | Low -- °F
--% Chance of Precip.
Yesterday
High -- | Low -- °F
Precip. -- in
6:39 AM 7:54 PM
Waning Gibbous, 96% visible
Pressure 30.07 in
Visibility 10.0 miles
Clouds Few 2300 ft
Mostly Cloudy 3400 ft
Mostly Cloudy 5000 ft
Heat Index 72 °F
Dew Point 68 °F
Humidity 85%
Rainfall 0.02 in
Snow Depth Not available.
UV 0 out of 12
Pollen .60 out of 12
Air Quality Not available.
Flu Activity Local Activity
METAR KPBI 060253Z 03007KT 10SM FEW023 BKN034 BKN050 22/20 A3007 RMK AO2 RAB23E53 SLP183 P0002 60002 T02220200 53008 $

More Conditions Fewer Conditions

Pressure 30.07 in
Visibility 10.0 miles
Clouds Few 2300 ft
Mostly Cloudy 3400 ft
Mostly Cloudy 5000 ft
Heat Index 72 °F
Dew Point 68 °F
Humidity 85%
Rainfall 0.02 in
Snow Depth Not available.
UV 0 out of 12
Pollen .60 out of 12
Air Quality Not available.
Flu Activity Local Activity
METAR KPBI 060253Z 03007KT 10SM FEW023 BKN034 BKN050 22/20 A3007 RMK AO2 RAB23E53 SLP183 P0002 60002 T02220200 53008 $

More Conditions Fewer Conditions

Nowcast | as of 11:00 PM EDT on May 5, 2015

Through 1 am isolated to scattered showers will be impacting mainly portions of coastal and Metro Broward and Palm Beach counties as they move in from the east and northeast off the Atlantic waters. Main concerns with the activity will be brief periods of heavy rain and gusty winds in excess of 25 mph.

×

10-Day Weather Forecast

Almanac

Astronomy

May. 05, 2015 Rise Set
Actual Time
Civil Twilight
Nautical Twilight
Astronomical Twilight
Moon
Length of Visible Light
Length of Day
Tomorrow will be .
, % of the Moon is Illuminated

Today's Extremes

State Highs State Lows

Community

WunderPhotos

Upload Photos

1,819,061 photos uploaded!

WunderBlogs® & News

Nearby

Air Quality

  Air Quality AQ Index Pollutant
Not available.

Snow Depth

Station Depth Elevation

Earthquake Activity

City Distance Mag. Time & Date
Minimum magnitude displayed is 2.5.

Coastal Water Temperatures

Place Temperature

Stations

Nearby Weather Stations

Station Location Temp. Windchill Dew Point Humidity Wind Precip. Elev Updated Type